Terminal Aerodrome Forecast
Issued by NWS

Current Version | Previous Version | Graphics & Text | Print | Product List | Glossary On
Versions: 1 2 3 4 5 6 7 8 9 10 11 12 13 14 15 16 17 18 19 20 21 22 23 24 25 26 27 28 29 30 31 32 33 34 35 36 37 38 39 40 41
000
FTUS41 KRNK 242333
TAFLWB
TAF
KLWB 242333Z 2500/2524 00000KT P6SM SCT020 OVC035
      TEMPO 2502/2504 BKN020
     FM250700 00000KT 2SM BR SCT013 BKN018
      TEMPO 2509/2511 1/4SM FG BKN001
     FM251330 00000KT 4SM BR SCT006 OVC018
     FM251500 11003KT P6SM SCT020
     FM251800 11004KT P6SM SKC=

USA.gov is the U.S. government's official web portal to all federal, state and local government web resources and services.